Burns, OR

5:59 PM PDT on July 23, 2016 (GMT -0700)
Burns Municipal | | Change Station

Elev 4170 ft 43.60 °N, 118.96 °W | Updated 6 minutes ago

Clear
Clear
84 °F
Feels Like 84 °F
N
10
Wind Variable Wind from South

Today
High -- | Low -- °F
--% Chance of Precip.
Yesterday
High -- | Low -- °F
Precip. -- in
Pressure 30.04 in
Visibility 10.0 miles
Clouds Clear
Dew Point 24 °F
Humidity 11%
Rainfall 0.00 in
Snow Depth Not available.
5:35 AM 8:26 PM
Waning Gibbous, 81% visible
METAR KBNO 240053Z AUTO 19009KT 10SM CLR 29/M04 A3012 RMK AO2 SLP170 T02891044 TSNO
Pressure 30.04 in
Visibility 10.0 miles
Clouds Clear
Dew Point 24 °F
Humidity 11%
Rainfall 0.00 in
Snow Depth Not available.
5:35 AM 8:26 PM
Waning Gibbous, 81% visible
METAR KBNO 240053Z AUTO 19009KT 10SM CLR 29/M04 A3012 RMK AO2 SLP170 T02891044 TSNO

10-Day Weather Forecast

Almanac

Astronomy

Jul. 23, 2016 Rise Set
Actual Time
Civil Twilight
Nautical Twilight
Astronomical Twilight
Moon
Length of Visible Light
Length of Day
Tomorrow will be .
, % of the Moon is Illuminated

Today's Extremes

State Highs State Lows

Community

WunderPhotos

Upload Photos

1,926,985 photos uploaded!

WunderBlog® & News

Nearby

Air Quality

  Air Quality AQ Index Pollutant
Not available.

Snow Depth

Station Depth Elevation

Earthquake Activity

City Distance Mag. Time & Date
Minimum magnitude displayed is 2.5.

Coastal Water Temperatures

Place Temperature

Stations

Nearby Weather Stations

Station Location Temp. Windchill Dew Point Humidity Wind Precip. Elev Updated Type
                   

Watches & Warnings

There are currently no watches in effect.